sensor_id;sensor_type;location;lat;lon;timestamp;temperature;humidity
63017;DHT22;50274;45.640;11.756;2023-09-18T00:01:38;23.30;76.80
63017;DHT22;50274;45.640;11.756;2023-09-18T00:04:07;23.20;76.80
63017;DHT22;50274;45.640;11.756;2023-09-18T00:06:33;23.20;76.80
63017;DHT22;50274;45.640;11.756;2023-09-18T00:08:59;23.20;76.90
63017;DHT22;50274;45.640;11.756;2023-09-18T00:11:25;23.10;77.00
63017;DHT22;50274;45.640;11.756;2023-09-18T00:13:51;23.10;77.10
63017;DHT22;50274;45.640;11.756;2023-09-18T00:16:16;23.10;77.20
63017;DHT22;50274;45.640;11.756;2023-09-18T00:18:43;23.10;77.30
63017;DHT22;50274;45.640;11.756;2023-09-18T00:21:11;23.10;77.30
63017;DHT22;50274;45.640;11.756;2023-09-18T00:23:37;23.10;77.20
63017;DHT22;50274;45.640;11.756;2023-09-18T00:26:03;23.10;77.20
63017;DHT22;50274;45.640;11.756;2023-09-18T00:28:29;23.10;77.20
63017;DHT22;50274;45.640;11.756;2023-09-18T00:30:55;23.10;77.20
63017;DHT22;50274;45.640;11.756;2023-09-18T00:33:21;23.10;77.20
63017;DHT22;50274;45.640;11.756;2023-09-18T00:35:48;23.00;77.20
63017;DHT22;50274;45.640;11.756;2023-09-18T00:38:15;23.00;77.20
63017;DHT22;50274;45.640;11.756;2023-09-18T00:40:41;23.00;77.30
63017;DHT22;50274;45.640;11.756;2023-09-18T00:43:08;23.00;77.30
63017;DHT22;50274;45.640;11.756;2023-09-18T00:45:34;23.00;77.30
63017;DHT22;50274;45.640;11.756;2023-09-18T00:48:02;23.00;77.40
63017;DHT22;50274;45.640;11.756;2023-09-18T00:50:28;23.00;77.40
63017;DHT22;50274;45.640;11.756;2023-09-18T00:52:54;23.00;77.40
63017;DHT22;50274;45.640;11.756;2023-09-18T00:55:20;23.00;77.40
63017;DHT22;50274;45.640;11.756;2023-09-18T00:57:46;22.90;77.50
63017;DHT22;50274;45.640;11.756;2023-09-18T01:00:12;22.90;77.50
63017;DHT22;50274;45.640;11.756;2023-09-18T01:02:43;22.90;77.40
63017;DHT22;50274;45.640;11.756;2023-09-18T01:05:10;22.90;77.40
63017;DHT22;50274;45.640;11.756;2023-09-18T01:07:36;22.90;77.40
63017;DHT22;50274;45.640;11.756;2023-09-18T01:10:02;22.90;77.30
63017;DHT22;50274;45.640;11.756;2023-09-18T01:12:55;22.90;77.30
63017;DHT22;50274;45.640;11.756;2023-09-18T01:15:54;22.90;77.30
63017;DHT22;50274;45.640;11.756;2023-09-18T01:18:23;22.80;77.20
63017;DHT22;50274;45.640;11.756;2023-09-18T01:20:49;22.80;77.20
63017;DHT22;50274;45.640;11.756;2023-09-18T01:23:15;22.80;77.20
63017;DHT22;50274;45.640;11.756;2023-09-18T01:25:40;22.80;77.30
63017;DHT22;50274;45.640;11.756;2023-09-18T01:28:06;22.70;77.40
63017;DHT22;50274;45.640;11.756;2023-09-18T01:30:32;22.70;77.50
63017;DHT22;50274;45.640;11.756;2023-09-18T01:33:01;22.70;77.60
63017;DHT22;50274;45.640;11.756;2023-09-18T01:35:29;22.70;77.60
63017;DHT22;50274;45.640;11.756;2023-09-18T01:37:57;22.70;77.60
63017;DHT22;50274;45.640;11.756;2023-09-18T01:40:24;22.60;77.60
63017;DHT22;50274;45.640;11.756;2023-09-18T01:42:51;22.60;77.60
63017;DHT22;50274;45.640;11.756;2023-09-18T01:45:17;22.60;77.60
63017;DHT22;50274;45.640;11.756;2023-09-18T01:47:43;22.60;77.60
63017;DHT22;50274;45.640;11.756;2023-09-18T01:50:09;22.60;77.60
63017;DHT22;50274;45.640;11.756;2023-09-18T01:52:35;22.60;77.60
63017;DHT22;50274;45.640;11.756;2023-09-18T01:55:02;22.60;77.60
63017;DHT22;50274;45.640;11.756;2023-09-18T01:57:29;22.50;77.50
63017;DHT22;50274;45.640;11.756;2023-09-18T01:59:55;22.50;77.50
63017;DHT22;50274;45.640;11.756;2023-09-18T02:02:21;22.50;77.50
63017;DHT22;50274;45.640;11.756;2023-09-18T02:04:47;22.50;77.60
63017;DHT22;50274;45.640;11.756;2023-09-18T02:07:13;22.50;77.60
63017;DHT22;50274;45.640;11.756;2023-09-18T02:09:39;22.40;77.60
63017;DHT22;50274;45.640;11.756;2023-09-18T02:12:05;22.40;77.60
63017;DHT22;50274;45.640;11.756;2023-09-18T02:14:32;22.40;77.60
63017;DHT22;50274;45.640;11.756;2023-09-18T02:16:59;22.40;77.60
63017;DHT22;50274;45.640;11.756;2023-09-18T02:19:25;22.40;77.60
63017;DHT22;50274;45.640;11.756;2023-09-18T02:21:51;22.40;77.60
63017;DHT22;50274;45.640;11.756;2023-09-18T02:24:17;22.40;77.60
63017;DHT22;50274;45.640;11.756;2023-09-18T02:26:43;22.40;77.60
63017;DHT22;50274;45.640;11.756;2023-09-18T02:29:11;22.40;77.60
63017;DHT22;50274;45.640;11.756;2023-09-18T02:31:39;22.30;77.70
63017;DHT22;50274;45.640;11.756;2023-09-18T02:34:05;22.40;77.70
63017;DHT22;50274;45.640;11.756;2023-09-18T02:36:33;22.30;77.70
63017;DHT22;50274;45.640;11.756;2023-09-18T02:38:59;22.30;77.70
63017;DHT22;50274;45.640;11.756;2023-09-18T02:41:25;22.30;77.70
63017;DHT22;50274;45.640;11.756;2023-09-18T02:43:50;22.30;77.80
63017;DHT22;50274;45.640;11.756;2023-09-18T02:46:16;22.30;77.80
63017;DHT22;50274;45.640;11.756;2023-09-18T02:48:42;22.30;77.80
63017;DHT22;50274;45.640;11.756;2023-09-18T02:51:08;22.20;77.80
63017;DHT22;50274;45.640;11.756;2023-09-18T02:53:34;22.30;77.90
63017;DHT22;50274;45.640;11.756;2023-09-18T02:56:00;22.30;77.80
63017;DHT22;50274;45.640;11.756;2023-09-18T02:58:26;22.30;77.80
63017;DHT22;50274;45.640;11.756;2023-09-18T03:00:56;22.20;77.80
63017;DHT22;50274;45.640;11.756;2023-09-18T03:03:25;22.20;77.80
63017;DHT22;50274;45.640;11.756;2023-09-18T03:05:51;22.20;77.80
63017;DHT22;50274;45.640;11.756;2023-09-18T03:08:17;22.20;77.90
63017;DHT22;50274;45.640;11.756;2023-09-18T03:10:43;22.20;77.80
63017;DHT22;50274;45.640;11.756;2023-09-18T03:13:12;22.10;77.70
63017;DHT22;50274;45.640;11.756;2023-09-18T03:15:38;22.20;77.60
63017;DHT22;50274;45.640;11.756;2023-09-18T03:18:06;22.20;77.60
63017;DHT22;50274;45.640;11.756;2023-09-18T03:20:33;22.10;77.50
63017;DHT22;50274;45.640;11.756;2023-09-18T03:23:12;22.10;77.50
63017;DHT22;50274;45.640;11.756;2023-09-18T03:25:40;22.10;77.50
63017;DHT22;50274;45.640;11.756;2023-09-18T03:28:18;22.10;77.50
63017;DHT22;50274;45.640;11.756;2023-09-18T03:30:50;22.10;77.50
63017;DHT22;50274;45.640;11.756;2023-09-18T03:33:16;22.00;77.50
63017;DHT22;50274;45.640;11.756;2023-09-18T03:35:46;22.00;77.60
63017;DHT22;50274;45.640;11.756;2023-09-18T03:38:13;22.00;77.70
63017;DHT22;50274;45.640;11.756;2023-09-18T03:40:39;21.90;77.70
63017;DHT22;50274;45.640;11.756;2023-09-18T03:43:05;21.90;77.80
63017;DHT22;50274;45.640;11.756;2023-09-18T03:45:30;22.00;77.70
63017;DHT22;50274;45.640;11.756;2023-09-18T03:47:56;22.00;77.70
63017;DHT22;50274;45.640;11.756;2023-09-18T03:50:22;22.00;77.70
63017;DHT22;50274;45.640;11.756;2023-09-18T03:52:48;22.00;77.70
63017;DHT22;50274;45.640;11.756;2023-09-18T03:55:13;22.00;77.70
63017;DHT22;50274;45.640;11.756;2023-09-18T03:57:41;22.00;77.70
63017;DHT22;50274;45.640;11.756;2023-09-18T04:00:07;22.00;77.70
63017;DHT22;50274;45.640;11.756;2023-09-18T04:02:34;22.00;77.70
63017;DHT22;50274;45.640;11.756;2023-09-18T04:05:00;22.10;77.70
63017;DHT22;50274;45.640;11.756;2023-09-18T04:07:27;22.10;77.70
63017;DHT22;50274;45.640;11.756;2023-09-18T04:09:53;22.10;77.70
63017;DHT22;50274;45.640;11.756;2023-09-18T04:12:18;22.10;77.70
63017;DHT22;50274;45.640;11.756;2023-09-18T04:14:44;22.10;77.70
63017;DHT22;50274;45.640;11.756;2023-09-18T04:17:10;22.10;77.70
63017;DHT22;50274;45.640;11.756;2023-09-18T04:19:36;22.10;77.80
63017;DHT22;50274;45.640;11.756;2023-09-18T04:22:02;22.10;77.90
63017;DHT22;50274;45.640;11.756;2023-09-18T04:24:28;22.10;77.90
63017;DHT22;50274;45.640;11.756;2023-09-18T04:26:54;22.10;78.00
63017;DHT22;50274;45.640;11.756;2023-09-18T04:29:19;22.10;78.00
63017;DHT22;50274;45.640;11.756;2023-09-18T04:31:45;22.10;78.00
63017;DHT22;50274;45.640;11.756;2023-09-18T04:34:12;22.10;78.00
63017;DHT22;50274;45.640;11.756;2023-09-18T04:36:38;22.20;78.00
63017;DHT22;50274;45.640;11.756;2023-09-18T04:39:05;22.10;78.00
63017;DHT22;50274;45.640;11.756;2023-09-18T04:41:31;22.10;78.10
63017;DHT22;50274;45.640;11.756;2023-09-18T04:43:57;22.10;78.10
63017;DHT22;50274;45.640;11.756;2023-09-18T04:46:23;22.10;78.10
63017;DHT22;50274;45.640;11.756;2023-09-18T04:48:50;22.20;78.10
63017;DHT22;50274;45.640;11.756;2023-09-18T04:51:16;22.20;78.20
63017;DHT22;50274;45.640;11.756;2023-09-18T04:53:42;22.10;78.20
63017;DHT22;50274;45.640;11.756;2023-09-18T04:56:08;22.20;78.20
63017;DHT22;50274;45.640;11.756;2023-09-18T04:58:36;22.20;78.20
63017;DHT22;50274;45.640;11.756;2023-09-18T05:01:03;22.20;78.30
63017;DHT22;50274;45.640;11.756;2023-09-18T05:03:33;22.20;78.30
63017;DHT22;50274;45.640;11.756;2023-09-18T05:05:59;22.20;78.40
63017;DHT22;50274;45.640;11.756;2023-09-18T05:08:25;22.20;78.40
63017;DHT22;50274;45.640;11.756;2023-09-18T05:10:51;22.20;78.50
63017;DHT22;50274;45.640;11.756;2023-09-18T05:13:17;22.10;78.50
63017;DHT22;50274;45.640;11.756;2023-09-18T05:15:42;22.20;78.60
63017;DHT22;50274;45.640;11.756;2023-09-18T05:18:08;22.20;78.60
63017;DHT22;50274;45.640;11.756;2023-09-18T05:20:34;22.20;78.60
63017;DHT22;50274;45.640;11.756;2023-09-18T05:23:00;22.20;78.60
63017;DHT22;50274;45.640;11.756;2023-09-18T05:25:29;22.30;78.60
63017;DHT22;50274;45.640;11.756;2023-09-18T05:27:58;22.20;78.60
63017;DHT22;50274;45.640;11.756;2023-09-18T05:30:30;22.30;78.60
63017;DHT22;50274;45.640;11.756;2023-09-18T05:33:01;22.30;78.60
63017;DHT22;50274;45.640;11.756;2023-09-18T05:38:03;22.30;78.60
63017;DHT22;50274;45.640;11.756;2023-09-18T05:40:29;22.30;78.60
63017;DHT22;50274;45.640;11.756;2023-09-18T05:42:55;22.30;78.60
63017;DHT22;50274;45.640;11.756;2023-09-18T05:45:21;22.40;78.60
63017;DHT22;50274;45.640;11.756;2023-09-18T05:47:48;22.40;78.60
63017;DHT22;50274;45.640;11.756;2023-09-18T05:50:14;22.40;78.60
63017;DHT22;50274;45.640;11.756;2023-09-18T05:52:42;22.40;78.70
63017;DHT22;50274;45.640;11.756;2023-09-18T05:55:08;22.40;78.70
63017;DHT22;50274;45.640;11.756;2023-09-18T05:57:35;22.40;78.70
63017;DHT22;50274;45.640;11.756;2023-09-18T06:00:01;22.40;78.70
63017;DHT22;50274;45.640;11.756;2023-09-18T06:02:28;22.40;78.70
63017;DHT22;50274;45.640;11.756;2023-09-18T06:04:58;22.40;78.70
63017;DHT22;50274;45.640;11.756;2023-09-18T06:07:26;22.40;78.80
63017;DHT22;50274;45.640;11.756;2023-09-18T06:09:53;22.40;78.80
63017;DHT22;50274;45.640;11.756;2023-09-18T06:12:19;22.50;78.80
63017;DHT22;50274;45.640;11.756;2023-09-18T06:14:47;22.50;78.80
63017;DHT22;50274;45.640;11.756;2023-09-18T06:17:14;22.50;78.80
63017;DHT22;50274;45.640;11.756;2023-09-18T06:19:44;22.50;78.80
63017;DHT22;50274;45.640;11.756;2023-09-18T06:22:11;22.60;78.80
63017;DHT22;50274;45.640;11.756;2023-09-18T06:24:37;22.60;78.80
63017;DHT22;50274;45.640;11.756;2023-09-18T06:27:03;22.60;78.80
63017;DHT22;50274;45.640;11.756;2023-09-18T06:29:33;22.60;78.80
63017;DHT22;50274;45.640;11.756;2023-09-18T06:32:00;22.70;78.80
63017;DHT22;50274;45.640;11.756;2023-09-18T06:34:26;22.60;78.80
63017;DHT22;50274;45.640;11.756;2023-09-18T06:36:58;22.70;78.80
63017;DHT22;50274;45.640;11.756;2023-09-18T06:39:25;22.70;78.90
63017;DHT22;50274;45.640;11.756;2023-09-18T06:41:51;22.70;78.90
63017;DHT22;50274;45.640;11.756;2023-09-18T06:44:19;22.70;78.80
63017;DHT22;50274;45.640;11.756;2023-09-18T06:46:48;22.80;78.80
63017;DHT22;50274;45.640;11.756;2023-09-18T06:49:13;22.80;78.80
63017;DHT22;50274;45.640;11.756;2023-09-18T06:51:39;22.80;78.80
63017;DHT22;50274;45.640;11.756;2023-09-18T06:54:06;22.80;78.80
63017;DHT22;50274;45.640;11.756;2023-09-18T06:56:31;22.80;78.80
63017;DHT22;50274;45.640;11.756;2023-09-18T06:58:57;22.90;78.70
63017;DHT22;50274;45.640;11.756;2023-09-18T07:01:23;22.90;78.60
63017;DHT22;50274;45.640;11.756;2023-09-18T07:03:50;22.90;78.50
63017;DHT22;50274;45.640;11.756;2023-09-18T07:06:16;22.90;78.40
63017;DHT22;50274;45.640;11.756;2023-09-18T07:08:44;23.00;78.40
63017;DHT22;50274;45.640;11.756;2023-09-18T07:11:10;23.00;78.30
63017;DHT22;50274;45.640;11.756;2023-09-18T07:13:40;23.00;78.20
63017;DHT22;50274;45.640;11.756;2023-09-18T07:16:06;23.10;78.20
63017;DHT22;50274;45.640;11.756;2023-09-18T07:18:32;23.10;78.20
63017;DHT22;50274;45.640;11.756;2023-09-18T07:20:58;23.10;78.00
63017;DHT22;50274;45.640;11.756;2023-09-18T07:23:24;23.10;78.00
63017;DHT22;50274;45.640;11.756;2023-09-18T07:25:50;23.10;77.90
63017;DHT22;50274;45.640;11.756;2023-09-18T07:28:16;23.10;77.90
63017;DHT22;50274;45.640;11.756;2023-09-18T07:30:44;23.20;77.80
63017;DHT22;50274;45.640;11.756;2023-09-18T07:33:10;23.20;77.80
63017;DHT22;50274;45.640;11.756;2023-09-18T07:35:37;23.20;77.70
63017;DHT22;50274;45.640;11.756;2023-09-18T07:38:04;23.20;77.70
63017;DHT22;50274;45.640;11.756;2023-09-18T07:40:30;23.30;77.70
63017;DHT22;50274;45.640;11.756;2023-09-18T07:42:56;23.30;77.60
63017;DHT22;50274;45.640;11.756;2023-09-18T07:45:23;23.40;77.50
63017;DHT22;50274;45.640;11.756;2023-09-18T07:47:49;23.40;77.40
63017;DHT22;50274;45.640;11.756;2023-09-18T07:50:15;23.40;77.30
63017;DHT22;50274;45.640;11.756;2023-09-18T07:52:42;23.40;77.30
63017;DHT22;50274;45.640;11.756;2023-09-18T07:55:08;23.50;77.30
63017;DHT22;50274;45.640;11.756;2023-09-18T07:57:35;23.50;77.30
63017;DHT22;50274;45.640;11.756;2023-09-18T08:00:04;23.50;77.20
63017;DHT22;50274;45.640;11.756;2023-09-18T08:02:33;23.60;77.10
63017;DHT22;50274;45.640;11.756;2023-09-18T08:05:01;23.60;77.10
63017;DHT22;50274;45.640;11.756;2023-09-18T08:07:27;23.70;77.00
63017;DHT22;50274;45.640;11.756;2023-09-18T08:09:54;23.80;76.90
63017;DHT22;50274;45.640;11.756;2023-09-18T08:12:20;23.80;76.80
63017;DHT22;50274;45.640;11.756;2023-09-18T08:14:46;23.90;76.70
63017;DHT22;50274;45.640;11.756;2023-09-18T08:17:12;23.90;76.60
63017;DHT22;50274;45.640;11.756;2023-09-18T08:19:38;24.00;76.50
63017;DHT22;50274;45.640;11.756;2023-09-18T08:22:05;24.00;76.50
63017;DHT22;50274;45.640;11.756;2023-09-18T08:24:31;24.10;76.40
63017;DHT22;50274;45.640;11.756;2023-09-18T08:26:57;24.20;76.20
63017;DHT22;50274;45.640;11.756;2023-09-18T08:29:23;24.30;76.00
63017;DHT22;50274;45.640;11.756;2023-09-18T08:31:49;24.40;75.70
63017;DHT22;50274;45.640;11.756;2023-09-18T08:34:16;24.50;75.40
63017;DHT22;50274;45.640;11.756;2023-09-18T08:36:42;24.70;75.00
63017;DHT22;50274;45.640;11.756;2023-09-18T08:39:08;24.80;74.50
63017;DHT22;50274;45.640;11.756;2023-09-18T08:41:38;24.90;74.20
63017;DHT22;50274;45.640;11.756;2023-09-18T08:44:07;25.10;73.90
63017;DHT22;50274;45.640;11.756;2023-09-18T08:46:33;25.20;73.60
63017;DHT22;50274;45.640;11.756;2023-09-18T08:49:00;25.30;73.50
63017;DHT22;50274;45.640;11.756;2023-09-18T08:51:27;25.40;73.20
63017;DHT22;50274;45.640;11.756;2023-09-18T08:53:55;25.40;73.30
63017;DHT22;50274;45.640;11.756;2023-09-18T08:56:21;25.30;73.50
63017;DHT22;50274;45.640;11.756;2023-09-18T08:58:48;25.30;73.60
63017;DHT22;50274;45.640;11.756;2023-09-18T09:01:14;25.30;73.70
63017;DHT22;50274;45.640;11.756;2023-09-18T09:03:41;25.30;73.80
63017;DHT22;50274;45.640;11.756;2023-09-18T09:06:08;25.30;73.90
63017;DHT22;50274;45.640;11.756;2023-09-18T09:08:35;25.30;73.90
63017;DHT22;50274;45.640;11.756;2023-09-18T09:11:05;25.30;73.90
63017;DHT22;50274;45.640;11.756;2023-09-18T09:13:31;25.30;73.90
63017;DHT22;50274;45.640;11.756;2023-09-18T09:15:58;25.30;74.00
63017;DHT22;50274;45.640;11.756;2023-09-18T09:18:28;25.20;74.00
63017;DHT22;50274;45.640;11.756;2023-09-18T09:21:02;25.20;74.00
63017;DHT22;50274;45.640;11.756;2023-09-18T09:23:50;25.10;74.10
63017;DHT22;50274;45.640;11.756;2023-09-18T09:26:23;25.10;74.40
63017;DHT22;50274;45.640;11.756;2023-09-18T09:28:49;25.00;74.60
63017;DHT22;50274;45.640;11.756;2023-09-18T09:31:28;24.90;74.80
63017;DHT22;50274;45.640;11.756;2023-09-18T09:33:54;24.90;74.90
63017;DHT22;50274;45.640;11.756;2023-09-18T09:36:22;24.90;75.10
63017;DHT22;50274;45.640;11.756;2023-09-18T09:38:49;24.90;75.30
63017;DHT22;50274;45.640;11.756;2023-09-18T09:41:19;24.90;75.30
63017;DHT22;50274;45.640;11.756;2023-09-18T09:43:45;24.90;75.40
63017;DHT22;50274;45.640;11.756;2023-09-18T09:46:18;24.80;75.60
63017;DHT22;50274;45.640;11.756;2023-09-18T09:49:04;24.80;75.60
63017;DHT22;50274;45.640;11.756;2023-09-18T09:51:31;24.80;75.60
63017;DHT22;50274;45.640;11.756;2023-09-18T09:53:59;24.70;75.70
63017;DHT22;50274;45.640;11.756;2023-09-18T09:59:07;24.70;75.80
63017;DHT22;50274;45.640;11.756;2023-09-18T10:01:37;24.80;75.80
63017;DHT22;50274;45.640;11.756;2023-09-18T10:04:09;24.80;75.80
63017;DHT22;50274;45.640;11.756;2023-09-18T10:06:36;24.80;75.80
63017;DHT22;50274;45.640;11.756;2023-09-18T10:09:03;24.90;75.80
63017;DHT22;50274;45.640;11.756;2023-09-18T10:11:34;24.90;75.80
63017;DHT22;50274;45.640;11.756;2023-09-18T10:14:16;24.90;75.80
63017;DHT22;50274;45.640;11.756;2023-09-18T10:16:50;24.90;75.80
63017;DHT22;50274;45.640;11.756;2023-09-18T10:19:42;24.80;75.90
63017;DHT22;50274;45.640;11.756;2023-09-18T10:22:24;24.80;76.00
63017;DHT22;50274;45.640;11.756;2023-09-18T10:24:56;24.80;76.10
63017;DHT22;50274;45.640;11.756;2023-09-18T10:27:26;24.70;76.20
63017;DHT22;50274;45.640;11.756;2023-09-18T10:29:54;24.70;76.30
63017;DHT22;50274;45.640;11.756;2023-09-18T10:32:20;24.70;76.50
63017;DHT22;50274;45.640;11.756;2023-09-18T10:34:48;24.60;76.50
63017;DHT22;50274;45.640;11.756;2023-09-18T10:37:15;24.60;76.60
63017;DHT22;50274;45.640;11.756;2023-09-18T10:39:42;24.50;76.80
63017;DHT22;50274;45.640;11.756;2023-09-18T10:42:10;24.50;76.80
63017;DHT22;50274;45.640;11.756;2023-09-18T10:44:36;24.50;76.80
63017;DHT22;50274;45.640;11.756;2023-09-18T10:47:07;24.50;76.80
63017;DHT22;50274;45.640;11.756;2023-09-18T10:49:35;24.50;76.90
63017;DHT22;50274;45.640;11.756;2023-09-18T10:52:01;24.50;76.90
63017;DHT22;50274;45.640;11.756;2023-09-18T10:54:28;24.40;77.00
63017;DHT22;50274;45.640;11.756;2023-09-18T10:56:56;24.40;77.10
63017;DHT22;50274;45.640;11.756;2023-09-18T10:59:23;24.50;77.30
63017;DHT22;50274;45.640;11.756;2023-09-18T11:01:49;24.50;77.30
63017;DHT22;50274;45.640;11.756;2023-09-18T11:04:18;24.50;77.50
63017;DHT22;50274;45.640;11.756;2023-09-18T11:09:25;24.50;77.40
63017;DHT22;50274;45.640;11.756;2023-09-18T11:12:04;24.60;77.40
63017;DHT22;50274;45.640;11.756;2023-09-18T11:14:56;24.60;77.60
63017;DHT22;50274;45.640;11.756;2023-09-18T11:25:37;25.00;77.00
63017;DHT22;50274;45.640;11.756;2023-09-18T11:28:05;25.00;76.90
63017;DHT22;50274;45.640;11.756;2023-09-18T11:30:35;25.10;76.80
63017;DHT22;50274;45.640;11.756;2023-09-18T11:33:05;25.10;76.70
63017;DHT22;50274;45.640;11.756;2023-09-18T11:35:35;25.10;76.70
63017;DHT22;50274;45.640;11.756;2023-09-18T11:38:07;25.20;76.60
63017;DHT22;50274;45.640;11.756;2023-09-18T11:40:36;25.20;76.50
63017;DHT22;50274;45.640;11.756;2023-09-18T11:43:26;25.20;76.40
63017;DHT22;50274;45.640;11.756;2023-09-18T11:45:53;25.20;76.30
63017;DHT22;50274;45.640;11.756;2023-09-18T11:48:24;25.30;76.20
63017;DHT22;50274;45.640;11.756;2023-09-18T11:50:51;25.30;76.10
63017;DHT22;50274;45.640;11.756;2023-09-18T11:53:18;25.30;76.00
63017;DHT22;50274;45.640;11.756;2023-09-18T11:55:44;25.30;75.80
63017;DHT22;50274;45.640;11.756;2023-09-18T11:58:10;25.40;75.70
63017;DHT22;50274;45.640;11.756;2023-09-18T12:00:36;25.40;75.70
63017;DHT22;50274;45.640;11.756;2023-09-18T12:03:22;25.50;75.60
63017;DHT22;50274;45.640;11.756;2023-09-18T12:06:00;25.50;75.30
63017;DHT22;50274;45.640;11.756;2023-09-18T12:08:28;25.60;75.10
63017;DHT22;50274;45.640;11.756;2023-09-18T12:10:56;25.70;74.80
63017;DHT22;50274;45.640;11.756;2023-09-18T12:13:25;25.90;74.60
63017;DHT22;50274;45.640;11.756;2023-09-18T12:15:56;26.00;74.50
63017;DHT22;50274;45.640;11.756;2023-09-18T12:18:24;26.10;74.10
63017;DHT22;50274;45.640;11.756;2023-09-18T12:20:51;26.20;73.80
63017;DHT22;50274;45.640;11.756;2023-09-18T12:23:18;26.20;73.00
63017;DHT22;50274;45.640;11.756;2023-09-18T12:25:49;26.30;72.40
63017;DHT22;50274;45.640;11.756;2023-09-18T12:28:16;26.30;72.40
63017;DHT22;50274;45.640;11.756;2023-09-18T12:30:43;26.20;72.40
63017;DHT22;50274;45.640;11.756;2023-09-18T12:33:12;26.20;72.30
63017;DHT22;50274;45.640;11.756;2023-09-18T12:35:40;26.10;72.50
63017;DHT22;50274;45.640;11.756;2023-09-18T12:38:17;26.10;72.60
63017;DHT22;50274;45.640;11.756;2023-09-18T12:40:52;26.00;72.80
63017;DHT22;50274;45.640;11.756;2023-09-18T12:43:18;26.00;72.80
63017;DHT22;50274;45.640;11.756;2023-09-18T12:45:45;26.00;72.80
63017;DHT22;50274;45.640;11.756;2023-09-18T12:48:13;25.90;73.00
63017;DHT22;50274;45.640;11.756;2023-09-18T12:50:39;25.90;73.00
63017;DHT22;50274;45.640;11.756;2023-09-18T12:53:12;25.90;73.00
63017;DHT22;50274;45.640;11.756;2023-09-18T12:55:38;25.90;72.90
63017;DHT22;50274;45.640;11.756;2023-09-18T12:58:05;26.00;72.90
63017;DHT22;50274;45.640;11.756;2023-09-18T13:00:35;26.10;72.90
63017;DHT22;50274;45.640;11.756;2023-09-18T13:03:05;26.10;72.80
63017;DHT22;50274;45.640;11.756;2023-09-18T13:05:31;26.10;72.80
63017;DHT22;50274;45.640;11.756;2023-09-18T13:08:04;26.10;72.80
63017;DHT22;50274;45.640;11.756;2023-09-18T13:10:51;26.10;73.00
63017;DHT22;50274;45.640;11.756;2023-09-18T13:13:22;26.10;73.10
63017;DHT22;50274;45.640;11.756;2023-09-18T13:15:48;26.00;73.00
63017;DHT22;50274;45.640;11.756;2023-09-18T13:18:16;26.00;72.70
63017;DHT22;50274;45.640;11.756;2023-09-18T13:20:43;26.10;72.40
63017;DHT22;50274;45.640;11.756;2023-09-18T13:23:09;26.10;72.10
63017;DHT22;50274;45.640;11.756;2023-09-18T13:25:40;26.20;72.00
63017;DHT22;50274;45.640;11.756;2023-09-18T13:28:10;26.20;71.90
63017;DHT22;50274;45.640;11.756;2023-09-18T13:30:37;26.20;71.90
63017;DHT22;50274;45.640;11.756;2023-09-18T13:33:11;26.20;71.90
63017;DHT22;50274;45.640;11.756;2023-09-18T13:35:39;26.10;72.10
63017;DHT22;50274;45.640;11.756;2023-09-18T13:38:05;26.20;72.20
63017;DHT22;50274;45.640;11.756;2023-09-18T13:40:37;26.20;72.10
63017;DHT22;50274;45.640;11.756;2023-09-18T13:43:06;26.30;72.20
63017;DHT22;50274;45.640;11.756;2023-09-18T13:45:33;26.40;72.20
63017;DHT22;50274;45.640;11.756;2023-09-18T13:48:01;26.40;71.70
63017;DHT22;50274;45.640;11.756;2023-09-18T13:50:27;26.40;71.60
63017;DHT22;50274;45.640;11.756;2023-09-18T13:52:53;26.40;71.70
63017;DHT22;50274;45.640;11.756;2023-09-18T13:55:19;26.40;71.70
63017;DHT22;50274;45.640;11.756;2023-09-18T13:57:45;26.50;71.70
63017;DHT22;50274;45.640;11.756;2023-09-18T14:00:12;26.50;71.50
63017;DHT22;50274;45.640;11.756;2023-09-18T14:02:40;26.50;71.40
63017;DHT22;50274;45.640;11.756;2023-09-18T14:05:07;26.60;71.50
63017;DHT22;50274;45.640;11.756;2023-09-18T14:07:33;26.60;71.30
63017;DHT22;50274;45.640;11.756;2023-09-18T14:10:00;26.60;71.40
63017;DHT22;50274;45.640;11.756;2023-09-18T14:12:32;26.50;71.50
63017;DHT22;50274;45.640;11.756;2023-09-18T14:14:58;26.40;72.10
63017;DHT22;50274;45.640;11.756;2023-09-18T14:17:25;26.30;72.20
63017;DHT22;50274;45.640;11.756;2023-09-18T14:19:51;26.20;72.60
63017;DHT22;50274;45.640;11.756;2023-09-18T14:22:19;26.10;72.90
63017;DHT22;50274;45.640;11.756;2023-09-18T14:24:45;26.10;73.30
63017;DHT22;50274;45.640;11.756;2023-09-18T14:27:11;26.00;73.30
63017;DHT22;50274;45.640;11.756;2023-09-18T14:29:38;26.00;73.50
63017;DHT22;50274;45.640;11.756;2023-09-18T14:32:04;25.90;73.70
63017;DHT22;50274;45.640;11.756;2023-09-18T14:34:31;25.90;73.90
63017;DHT22;50274;45.640;11.756;2023-09-18T14:36:57;25.90;74.00
63017;DHT22;50274;45.640;11.756;2023-09-18T14:39:23;25.90;73.80
63017;DHT22;50274;45.640;11.756;2023-09-18T14:41:48;25.90;74.00
63017;DHT22;50274;45.640;11.756;2023-09-18T14:44:15;25.90;73.80
63017;DHT22;50274;45.640;11.756;2023-09-18T14:46:41;25.90;73.60
63017;DHT22;50274;45.640;11.756;2023-09-18T14:49:07;26.00;73.30
63017;DHT22;50274;45.640;11.756;2023-09-18T14:51:36;26.00;72.50
63017;DHT22;50274;45.640;11.756;2023-09-18T14:54:02;26.00;71.30
63017;DHT22;50274;45.640;11.756;2023-09-18T14:56:30;25.90;71.10
63017;DHT22;50274;45.640;11.756;2023-09-18T14:58:56;25.90;71.20
63017;DHT22;50274;45.640;11.756;2023-09-18T15:01:23;25.80;71.40
63017;DHT22;50274;45.640;11.756;2023-09-18T15:03:50;25.80;71.60
63017;DHT22;50274;45.640;11.756;2023-09-18T15:06:16;25.70;71.80
63017;DHT22;50274;45.640;11.756;2023-09-18T15:08:43;25.60;71.80
63017;DHT22;50274;45.640;11.756;2023-09-18T15:11:09;25.70;71.80
63017;DHT22;50274;45.640;11.756;2023-09-18T15:13:36;25.60;72.00
63017;DHT22;50274;45.640;11.756;2023-09-18T15:16:02;25.70;72.10
63017;DHT22;50274;45.640;11.756;2023-09-18T15:18:28;25.70;72.00
63017;DHT22;50274;45.640;11.756;2023-09-18T15:20:54;25.70;72.10
63017;DHT22;50274;45.640;11.756;2023-09-18T15:23:24;25.80;72.20
63017;DHT22;50274;45.640;11.756;2023-09-18T15:25:50;25.80;72.20
63017;DHT22;50274;45.640;11.756;2023-09-18T15:28:22;25.80;72.30
63017;DHT22;50274;45.640;11.756;2023-09-18T15:30:51;25.80;72.40
63017;DHT22;50274;45.640;11.756;2023-09-18T15:33:17;25.80;72.50
63017;DHT22;50274;45.640;11.756;2023-09-18T15:35:44;25.80;72.50